sensor_id;sensor_type;location;lat;lon;timestamp;pressure;altitude;pressure_sealevel;temperature;humidity
41898;BME280;27576;53.366;-1.498;2023-06-05T00:00:35;101349.16;;;14.25;77.97
41898;BME280;27576;53.366;-1.498;2023-06-05T00:03:00;101348.25;;;14.20;77.66
41898;BME280;27576;53.366;-1.498;2023-06-05T00:05:25;101332.34;;;14.02;78.22
41898;BME280;27576;53.366;-1.498;2023-06-05T00:07:52;101326.22;;;13.97;78.66
41898;BME280;27576;53.366;-1.498;2023-06-05T00:10:18;101331.38;;;13.92;78.90
41898;BME280;27576;53.366;-1.498;2023-06-05T00:12:43;101328.72;;;13.91;79.15
41898;BME280;27576;53.366;-1.498;2023-06-05T00:15:09;101356.72;;;14.06;79.47
41898;BME280;27576;53.366;-1.498;2023-06-05T00:17:35;101352.38;;;14.06;78.84
41898;BME280;27576;53.366;-1.498;2023-06-05T00:20:02;101322.63;;;13.90;78.70
41898;BME280;27576;53.366;-1.498;2023-06-05T00:22:27;101336.56;;;13.92;78.81
41898;BME280;27576;53.366;-1.498;2023-06-05T00:24:53;101348.00;;;14.02;79.29
41898;BME280;27576;53.366;-1.498;2023-06-05T00:27:18;101347.13;;;14.02;79.42
41898;BME280;27576;53.366;-1.498;2023-06-05T00:29:44;101332.25;;;13.93;80.05
41898;BME280;27576;53.366;-1.498;2023-06-05T00:32:10;101337.41;;;13.90;80.06
41898;BME280;27576;53.366;-1.498;2023-06-05T00:34:35;101352.28;;;13.97;79.88
41898;BME280;27576;53.366;-1.498;2023-06-05T00:37:01;101330.34;;;13.83;80.06
41898;BME280;27576;53.366;-1.498;2023-06-05T00:39:26;101352.16;;;13.91;80.43
41898;BME280;27576;53.366;-1.498;2023-06-05T00:41:52;101325.94;;;13.75;80.18
41898;BME280;27576;53.366;-1.498;2023-06-05T00:44:17;101330.28;;;13.77;79.99
41898;BME280;27576;53.366;-1.498;2023-06-05T00:46:43;101358.22;;;13.88;79.66
41898;BME280;27576;53.366;-1.498;2023-06-05T00:49:09;101330.22;;;13.75;80.85
41898;BME280;27576;53.366;-1.498;2023-06-05T00:51:35;101349.44;;;13.83;80.24
41898;BME280;27576;53.366;-1.498;2023-06-05T00:54:01;101345.97;;;13.83;81.26
41898;BME280;27576;53.366;-1.498;2023-06-05T00:56:27;101338.97;;;13.79;80.91
41898;BME280;27576;53.366;-1.498;2023-06-05T00:58:53;101336.41;;;13.82;80.97
41898;BME280;27576;53.366;-1.498;2023-06-05T01:01:20;101314.47;;;13.64;81.87
41898;BME280;27576;53.366;-1.498;2023-06-05T01:03:46;101303.13;;;13.62;81.92
41898;BME280;27576;53.366;-1.498;2023-06-05T01:06:13;101335.47;;;13.77;81.60
41898;BME280;27576;53.366;-1.498;2023-06-05T01:08:38;101312.69;;;13.60;81.95
41898;BME280;27576;53.366;-1.498;2023-06-05T01:11:12;101326.69;;;13.71;82.12
41898;BME280;27576;53.366;-1.498;2023-06-05T01:13:42;101306.66;;;13.64;81.88
41898;BME280;27576;53.366;-1.498;2023-06-05T01:16:10;101321.47;;;13.68;82.04
41898;BME280;27576;53.366;-1.498;2023-06-05T01:18:37;101318.13;;;13.75;81.34
41898;BME280;27576;53.366;-1.498;2023-06-05T01:21:10;101310.09;;;13.63;81.31
41898;BME280;27576;53.366;-1.498;2023-06-05T01:23:39;101323.28;;;13.72;81.65
41898;BME280;27576;53.366;-1.498;2023-06-05T01:26:11;101284.72;;;13.50;81.69
41898;BME280;27576;53.366;-1.498;2023-06-05T01:28:40;101318.88;;;13.68;81.80
41898;BME280;27576;53.366;-1.498;2023-06-05T01:31:11;101318.88;;;13.68;82.18
41898;BME280;27576;53.366;-1.498;2023-06-05T01:34:00;101295.16;;;13.50;82.91
41898;BME280;27576;53.366;-1.498;2023-06-05T01:36:28;101308.38;;;13.64;83.04
41898;BME280;27576;53.366;-1.498;2023-06-05T01:38:54;101286.41;;;13.45;82.62
41898;BME280;27576;53.366;-1.498;2023-06-05T01:41:21;101305.63;;;13.53;82.65
41898;BME280;27576;53.366;-1.498;2023-06-05T01:43:47;101297.69;;;13.45;82.23
41898;BME280;27576;53.366;-1.498;2023-06-05T01:46:17;101319.50;;;13.52;82.19
41898;BME280;27576;53.366;-1.498;2023-06-05T01:48:43;101321.19;;;13.48;83.16
41898;BME280;27576;53.366;-1.498;2023-06-05T01:51:09;101320.31;;;13.48;83.27
41898;BME280;27576;53.366;-1.498;2023-06-05T01:53:34;101293.06;;;13.27;82.70
41898;BME280;27576;53.366;-1.498;2023-06-05T01:55:59;101322.91;;;13.48;82.67
41898;BME280;27576;53.366;-1.498;2023-06-05T01:58:26;101319.44;;;13.49;83.03
41898;BME280;27576;53.366;-1.498;2023-06-05T02:00:53;101285.31;;;13.32;82.37
41898;BME280;27576;53.366;-1.498;2023-06-05T02:03:19;101305.44;;;13.44;84.12
41898;BME280;27576;53.366;-1.498;2023-06-05T02:05:44;101283.50;;;13.26;83.83
41898;BME280;27576;53.366;-1.498;2023-06-05T02:08:10;101301.91;;;13.37;84.12
41898;BME280;27576;53.366;-1.498;2023-06-05T02:10:36;101311.53;;;13.43;83.30
41898;BME280;27576;53.366;-1.498;2023-06-05T02:13:10;101314.06;;;13.38;82.80
41898;BME280;27576;53.366;-1.498;2023-06-05T02:15:36;101310.47;;;13.32;83.06
41898;BME280;27576;53.366;-1.498;2023-06-05T02:18:03;101313.06;;;13.29;83.15
41898;BME280;27576;53.366;-1.498;2023-06-05T02:20:30;101309.53;;;13.25;83.69
41898;BME280;27576;53.366;-1.498;2023-06-05T02:22:56;101270.03;;;13.00;83.90
41898;BME280;27576;53.366;-1.498;2023-06-05T02:25:22;101307.69;;;13.21;83.69
41898;BME280;27576;53.366;-1.498;2023-06-05T02:27:51;101287.53;;;13.09;83.40
41898;BME280;27576;53.366;-1.498;2023-06-05T02:30:17;101293.75;;;13.17;83.76
41898;BME280;27576;53.366;-1.498;2023-06-05T02:32:42;101308.56;;;13.21;84.61
41898;BME280;27576;53.366;-1.498;2023-06-05T02:35:10;101308.50;;;13.18;83.41
41898;BME280;27576;53.366;-1.498;2023-06-05T02:37:36;101300.63;;;13.15;83.25
41898;BME280;27576;53.366;-1.498;2023-06-05T02:40:09;101302.34;;;13.13;83.45
41898;BME280;27576;53.366;-1.498;2023-06-05T02:42:36;101304.91;;;13.10;84.05
41898;BME280;27576;53.366;-1.498;2023-06-05T02:45:02;101275.09;;;12.93;83.59
41898;BME280;27576;53.366;-1.498;2023-06-05T02:47:27;101303.16;;;13.09;83.71
41898;BME280;27576;53.366;-1.498;2023-06-05T02:49:52;101302.28;;;13.09;84.22
41898;BME280;27576;53.366;-1.498;2023-06-05T02:52:18;101279.44;;;12.92;83.48
41898;BME280;27576;53.366;-1.498;2023-06-05T02:54:43;101300.50;;;13.06;83.18
41898;BME280;27576;53.366;-1.498;2023-06-05T02:57:08;101295.25;;;13.05;82.59
41898;BME280;27576;53.366;-1.498;2023-06-05T02:59:34;101288.34;;;13.07;82.37
41898;BME280;27576;53.366;-1.498;2023-06-05T03:02:07;101271.59;;;12.89;81.88
41898;BME280;27576;53.366;-1.498;2023-06-05T03:04:33;101293.47;;;13.02;82.30
41898;BME280;27576;53.366;-1.498;2023-06-05T03:06:59;101287.38;;;13.00;81.68
41898;BME280;27576;53.366;-1.498;2023-06-05T03:09:30;101275.06;;;12.90;81.98
41898;BME280;27576;53.366;-1.498;2023-06-05T03:11:58;101277.63;;;12.88;81.37
41898;BME280;27576;53.366;-1.498;2023-06-05T03:14:24;101272.41;;;12.87;82.34
41898;BME280;27576;53.366;-1.498;2023-06-05T03:16:49;101292.44;;;12.92;83.17
41898;BME280;27576;53.366;-1.498;2023-06-05T03:19:15;101282.88;;;12.90;81.69
41898;BME280;27576;53.366;-1.498;2023-06-05T03:21:41;101288.91;;;12.89;81.68
41898;BME280;27576;53.366;-1.498;2023-06-05T03:24:09;101286.28;;;12.87;81.12
41898;BME280;27576;53.366;-1.498;2023-06-05T03:26:36;101286.22;;;12.84;81.43
41898;BME280;27576;53.366;-1.498;2023-06-05T03:29:02;101272.25;;;12.77;82.83
41898;BME280;27576;53.366;-1.498;2023-06-05T03:31:27;101292.34;;;12.86;82.19
41898;BME280;27576;53.366;-1.498;2023-06-05T03:33:52;101275.75;;;12.80;81.52
41898;BME280;27576;53.366;-1.498;2023-06-05T03:36:18;101287.94;;;12.84;81.79
41898;BME280;27576;53.366;-1.498;2023-06-05T03:38:44;101278.34;;;12.80;80.99
41898;BME280;27576;53.366;-1.498;2023-06-05T03:41:09;101276.53;;;12.75;81.62
41898;BME280;27576;53.366;-1.498;2023-06-05T03:43:35;101242.31;;;12.52;81.18
41898;BME280;27576;53.366;-1.498;2023-06-05T03:46:01;101283.47;;;12.75;81.11
41898;BME280;27576;53.366;-1.498;2023-06-05T03:48:27;101274.66;;;12.68;81.75
41898;BME280;27576;53.366;-1.498;2023-06-05T03:50:52;101264.19;;;12.62;81.16
41898;BME280;27576;53.366;-1.498;2023-06-05T03:53:19;101264.13;;;12.59;80.84
41898;BME280;27576;53.366;-1.498;2023-06-05T03:55:44;101298.13;;;12.71;81.26
41898;BME280;27576;53.366;-1.498;2023-06-05T03:58:12;101295.53;;;12.71;81.61
41898;BME280;27576;53.366;-1.498;2023-06-05T04:00:42;101283.41;;;12.70;81.98
41898;BME280;27576;53.366;-1.498;2023-06-05T04:03:09;101289.53;;;12.74;81.66
41898;BME280;27576;53.366;-1.498;2023-06-05T04:05:36;101256.31;;;12.59;82.25
41898;BME280;27576;53.366;-1.498;2023-06-05T04:08:02;101283.47;;;12.76;81.84
41898;BME280;27576;53.366;-1.498;2023-06-05T04:10:28;101262.38;;;12.60;81.25
41898;BME280;27576;53.366;-1.498;2023-06-05T04:12:53;101279.94;;;12.71;81.95
41898;BME280;27576;53.366;-1.498;2023-06-05T04:15:19;101272.00;;;12.65;82.74
41898;BME280;27576;53.366;-1.498;2023-06-05T04:17:44;101283.41;;;12.70;82.99
41898;BME280;27576;53.366;-1.498;2023-06-05T04:20:10;101281.59;;;12.66;83.29
41898;BME280;27576;53.366;-1.498;2023-06-05T04:22:35;101286.88;;;12.71;83.26
41898;BME280;27576;53.366;-1.498;2023-06-05T04:25:01;101296.41;;;12.72;83.00
41898;BME280;27576;53.366;-1.498;2023-06-05T04:27:26;101284.19;;;12.66;82.63
41898;BME280;27576;53.366;-1.498;2023-06-05T04:29:53;101292.84;;;12.67;82.96
41898;BME280;27576;53.366;-1.498;2023-06-05T04:32:19;101280.72;;;12.67;83.73
41898;BME280;27576;53.366;-1.498;2023-06-05T04:34:44;101289.41;;;12.68;83.38
41898;BME280;27576;53.366;-1.498;2023-06-05T04:37:10;101258.84;;;12.56;83.00
41898;BME280;27576;53.366;-1.498;2023-06-05T04:39:35;101254.47;;;12.53;83.14
41898;BME280;27576;53.366;-1.498;2023-06-05T04:42:01;101278.06;;;12.63;82.61
41898;BME280;27576;53.366;-1.498;2023-06-05T04:44:27;101282.31;;;12.59;82.80
41898;BME280;27576;53.366;-1.498;2023-06-05T04:46:53;101289.31;;;12.63;81.84
41898;BME280;27576;53.366;-1.498;2023-06-05T04:49:18;101295.34;;;12.61;82.80
41898;BME280;27576;53.366;-1.498;2023-06-05T04:51:44;101290.13;;;12.59;82.45
41898;BME280;27576;53.366;-1.498;2023-06-05T04:54:09;101291.84;;;12.59;81.50
41898;BME280;27576;53.366;-1.498;2023-06-05T04:56:36;101300.59;;;12.62;81.10
41898;BME280;27576;53.366;-1.498;2023-06-05T04:59:03;101296.25;;;12.63;81.91
41898;BME280;27576;53.366;-1.498;2023-06-05T05:01:29;101276.09;;;12.51;82.05
41898;BME280;27576;53.366;-1.498;2023-06-05T05:03:54;101291.06;;;12.64;82.42
41898;BME280;27576;53.366;-1.498;2023-06-05T05:06:20;101259.59;;;12.49;82.17
41898;BME280;27576;53.366;-1.498;2023-06-05T05:08:46;101294.59;;;12.68;82.80
41898;BME280;27576;53.366;-1.498;2023-06-05T05:11:15;101280.66;;;12.64;82.95
41898;BME280;27576;53.366;-1.498;2023-06-05T05:13:41;101284.19;;;12.66;82.53
41898;BME280;27576;53.366;-1.498;2023-06-05T05:16:07;101291.13;;;12.67;83.03
41898;BME280;27576;53.366;-1.498;2023-06-05T05:18:34;101295.41;;;12.65;82.45
41898;BME280;27576;53.366;-1.498;2023-06-05T05:21:00;101269.16;;;12.50;82.53
41898;BME280;27576;53.366;-1.498;2023-06-05T05:23:27;101297.94;;;12.61;83.51
41898;BME280;27576;53.366;-1.498;2023-06-05T05:25:52;101268.16;;;12.45;82.73
41898;BME280;27576;53.366;-1.498;2023-06-05T05:28:18;101297.13;;;12.63;84.05
41898;BME280;27576;53.366;-1.498;2023-06-05T05:30:43;101302.31;;;12.63;83.24
41898;BME280;27576;53.366;-1.498;2023-06-05T05:33:09;101286.72;;;12.63;82.75
41898;BME280;27576;53.366;-1.498;2023-06-05T05:35:34;101276.09;;;12.51;82.09
41898;BME280;27576;53.366;-1.498;2023-06-05T05:38:00;101269.09;;;12.47;83.37
41898;BME280;27576;53.366;-1.498;2023-06-05T05:40:25;101271.72;;;12.48;83.66
41898;BME280;27576;53.366;-1.498;2023-06-05T05:42:51;101242.03;;;12.37;84.83
41898;BME280;27576;53.366;-1.498;2023-06-05T05:45:16;101241.16;;;12.37;83.79
41898;BME280;27576;53.366;-1.498;2023-06-05T05:47:41;101276.19;;;12.57;84.81
41898;BME280;27576;53.366;-1.498;2023-06-05T05:50:07;101286.72;;;12.63;84.45
41898;BME280;27576;53.366;-1.498;2023-06-05T05:52:33;101292.78;;;12.64;84.52
41898;BME280;27576;53.366;-1.498;2023-06-05T05:54:58;101263.06;;;12.49;84.92
41898;BME280;27576;53.366;-1.498;2023-06-05T05:57:28;101271.03;;;12.59;84.28
41898;BME280;27576;53.366;-1.498;2023-06-05T05:59:55;101271.06;;;12.60;84.09
41898;BME280;27576;53.366;-1.498;2023-06-05T06:02:20;101247.28;;;12.40;84.88
41898;BME280;27576;53.366;-1.498;2023-06-05T06:04:46;101284.13;;;12.65;83.72
41898;BME280;27576;53.366;-1.498;2023-06-05T06:07:12;101287.59;;;12.62;83.55
41898;BME280;27576;53.366;-1.498;2023-06-05T06:09:38;101292.72;;;12.61;83.82
41898;BME280;27576;53.366;-1.498;2023-06-05T06:12:04;101301.44;;;12.63;83.72
41898;BME280;27576;53.366;-1.498;2023-06-05T06:14:34;101297.06;;;12.60;83.92
41898;BME280;27576;53.366;-1.498;2023-06-05T06:17:00;101298.78;;;12.58;83.76
41898;BME280;27576;53.366;-1.498;2023-06-05T06:19:26;101301.38;;;12.60;83.91
41898;BME280;27576;53.366;-1.498;2023-06-05T06:21:55;101275.25;;;12.53;84.64
41898;BME280;27576;53.366;-1.498;2023-06-05T06:24:21;101292.72;;;12.61;85.43
41898;BME280;27576;53.366;-1.498;2023-06-05T06:26:47;101291.94;;;12.63;85.48
41898;BME280;27576;53.366;-1.498;2023-06-05T06:29:23;101271.00;;;12.57;85.42
41898;BME280;27576;53.366;-1.498;2023-06-05T06:31:49;101273.72;;;12.62;84.20
41898;BME280;27576;53.366;-1.498;2023-06-05T06:34:15;101279.78;;;12.64;85.44
41898;BME280;27576;53.366;-1.498;2023-06-05T06:36:41;101286.88;;;12.72;84.68
41898;BME280;27576;53.366;-1.498;2023-06-05T06:39:10;101296.47;;;12.75;85.19
41898;BME280;27576;53.366;-1.498;2023-06-05T06:41:36;101297.34;;;12.75;84.43
41898;BME280;27576;53.366;-1.498;2023-06-05T06:44:02;101295.66;;;12.77;84.41
41898;BME280;27576;53.366;-1.498;2023-06-05T06:46:27;101272.00;;;12.64;84.29
41898;BME280;27576;53.366;-1.498;2023-06-05T06:48:53;101299.16;;;12.80;84.03
41898;BME280;27576;53.366;-1.498;2023-06-05T06:51:18;101255.31;;;12.52;83.74
41898;BME280;27576;53.366;-1.498;2023-06-05T06:53:44;101292.09;;;12.72;84.20
41898;BME280;27576;53.366;-1.498;2023-06-05T06:56:09;101287.66;;;12.67;84.75
41898;BME280;27576;53.366;-1.498;2023-06-05T06:58:36;101296.34;;;12.67;85.83
41898;BME280;27576;53.366;-1.498;2023-06-05T07:01:01;101291.00;;;12.60;85.84
41898;BME280;27576;53.366;-1.498;2023-06-05T07:03:27;101244.75;;;12.42;84.98
41898;BME280;27576;53.366;-1.498;2023-06-05T07:05:53;101250.97;;;12.51;84.87
41898;BME280;27576;53.366;-1.498;2023-06-05T07:08:18;101279.94;;;12.71;85.46
41898;BME280;27576;53.366;-1.498;2023-06-05T07:10:44;101258.09;;;12.62;84.65
41898;BME280;27576;53.366;-1.498;2023-06-05T07:13:09;101261.66;;;12.68;86.00
41898;BME280;27576;53.366;-1.498;2023-06-05T07:15:34;101293.22;;;12.87;84.41
41898;BME280;27576;53.366;-1.498;2023-06-05T07:18:00;101294.09;;;12.89;84.98
41898;BME280;27576;53.366;-1.498;2023-06-05T07:20:25;101275.66;;;12.75;83.81
41898;BME280;27576;53.366;-1.498;2023-06-05T07:22:50;101262.59;;;12.72;83.31
41898;BME280;27576;53.366;-1.498;2023-06-05T07:25:16;101297.69;;;12.94;83.09
41898;BME280;27576;53.366;-1.498;2023-06-05T07:27:43;101310.84;;;13.05;82.15
41898;BME280;27576;53.366;-1.498;2023-06-05T07:30:09;101318.78;;;13.12;81.54
41898;BME280;27576;53.366;-1.498;2023-06-05T07:32:35;101310.16;;;13.15;80.81
41898;BME280;27576;53.366;-1.498;2023-06-05T07:35:01;101311.09;;;13.18;81.14
41898;BME280;27576;53.366;-1.498;2023-06-05T07:37:27;101316.38;;;13.21;80.25
41898;BME280;27576;53.366;-1.498;2023-06-05T07:39:53;101315.50;;;13.22;79.02
41898;BME280;27576;53.366;-1.498;2023-06-05T07:42:19;101291.06;;;13.13;79.08
41898;BME280;27576;53.366;-1.498;2023-06-05T07:44:44;101275.41;;;13.11;79.00
41898;BME280;27576;53.366;-1.498;2023-06-05T07:47:10;101316.72;;;13.41;77.70
41898;BME280;27576;53.366;-1.498;2023-06-05T07:49:36;101325.47;;;13.45;76.21
41898;BME280;27576;53.366;-1.498;2023-06-05T07:52:01;101318.44;;;13.41;76.40
41898;BME280;27576;53.366;-1.498;2023-06-05T07:54:27;101313.38;;;13.50;76.04
41898;BME280;27576;53.366;-1.498;2023-06-05T07:56:52;101296.94;;;13.54;75.90
41898;BME280;27576;53.366;-1.498;2023-06-05T07:59:18;101324.19;;;13.78;74.54
41898;BME280;27576;53.366;-1.498;2023-06-05T08:01:49;101291.91;;;13.66;73.90
41898;BME280;27576;53.366;-1.498;2023-06-05T08:04:14;101310.38;;;13.83;74.57
41898;BME280;27576;53.366;-1.498;2023-06-05T08:06:41;101311.50;;;14.00;73.98
41898;BME280;27576;53.366;-1.498;2023-06-05T08:09:07;101306.50;;;14.17;72.99
41898;BME280;27576;53.366;-1.498;2023-06-05T08:11:35;101285.78;;;14.30;72.52
41898;BME280;27576;53.366;-1.498;2023-06-05T08:14:01;101298.25;;;14.54;72.42
41898;BME280;27576;53.366;-1.498;2023-06-05T08:16:29;101308.13;;;14.84;73.10
41898;BME280;27576;53.366;-1.498;2023-06-05T08:18:54;101296.13;;;15.04;70.28
41898;BME280;27576;53.366;-1.498;2023-06-05T08:21:20;101288.47;;;15.24;70.73
41898;BME280;27576;53.366;-1.498;2023-06-05T08:23:45;101300.91;;;15.57;68.88
41898;BME280;27576;53.366;-1.498;2023-06-05T08:26:11;101281.88;;;15.74;68.83
41898;BME280;27576;53.366;-1.498;2023-06-05T08:28:40;101289.03;;;16.08;67.15
41898;BME280;27576;53.366;-1.498;2023-06-05T08:31:09;101298.72;;;16.38;65.47
41898;BME280;27576;53.366;-1.498;2023-06-05T08:33:36;101293.56;;;16.55;65.30
41898;BME280;27576;53.366;-1.498;2023-06-05T08:36:02;101290.06;;;16.70;64.82
41898;BME280;27576;53.366;-1.498;2023-06-05T08:38:29;101265.63;;;16.51;63.78
41898;BME280;27576;53.366;-1.498;2023-06-05T08:41:03;101296.13;;;16.49;61.87
41898;BME280;27576;53.366;-1.498;2023-06-05T08:43:30;101275.94;;;16.10;63.09
41898;BME280;27576;53.366;-1.498;2023-06-05T08:45:56;101253.22;;;15.90;64.44
41898;BME280;27576;53.366;-1.498;2023-06-05T08:48:24;101292.53;;;16.07;64.74
41898;BME280;27576;53.366;-1.498;2023-06-05T08:50:50;101300.31;;;16.00;64.30
41898;BME280;27576;53.366;-1.498;2023-06-05T08:53:17;101282.78;;;15.79;64.67
41898;BME280;27576;53.366;-1.498;2023-06-05T08:55:47;101258.31;;;15.66;65.15
41898;BME280;27576;53.366;-1.498;2023-06-05T08:58:13;101285.44;;;15.86;66.09
41898;BME280;27576;53.366;-1.498;2023-06-05T09:00:39;101282.78;;;15.82;65.86
41898;BME280;27576;53.366;-1.498;2023-06-05T09:03:06;101289.75;;;15.81;66.17
41898;BME280;27576;53.366;-1.498;2023-06-05T09:05:32;101259.22;;;15.69;65.74
41898;BME280;27576;53.366;-1.498;2023-06-05T09:07:58;101288.91;;;15.85;65.36
41898;BME280;27576;53.366;-1.498;2023-06-05T09:10:28;101278.53;;;15.96;65.49
41898;BME280;27576;53.366;-1.498;2023-06-05T09:12:55;101270.75;;;16.19;66.61
41898;BME280;27576;53.366;-1.498;2023-06-05T09:15:23;101278.72;;;16.63;65.57
41898;BME280;27576;53.366;-1.498;2023-06-05T09:18:11;101290.09;;;16.78;63.16
41898;BME280;27576;53.366;-1.498;2023-06-05T09:20:41;101283.16;;;16.89;60.79
41898;BME280;27576;53.366;-1.498;2023-06-05T09:23:23;101296.25;;;17.04;60.14
41898;BME280;27576;53.366;-1.498;2023-06-05T09:25:49;101284.91;;;17.24;61.29
41898;BME280;27576;53.366;-1.498;2023-06-05T09:28:16;101291.00;;;17.44;59.85
41898;BME280;27576;53.366;-1.498;2023-06-05T09:30:59;101279.63;;;17.65;57.42
41898;BME280;27576;53.366;-1.498;2023-06-05T09:33:31;101253.38;;;17.79;57.57
41898;BME280;27576;53.366;-1.498;2023-06-05T09:36:03;101281.25;;;18.09;56.39
41898;BME280;27576;53.366;-1.498;2023-06-05T09:38:29;101252.38;;;18.13;57.07
41898;BME280;27576;53.366;-1.498;2023-06-05T09:41:05;101278.47;;;18.38;56.18
41898;BME280;27576;53.366;-1.498;2023-06-05T09:43:31;101289.81;;;18.46;55.43
41898;BME280;27576;53.366;-1.498;2023-06-05T09:45:57;101282.81;;;18.51;55.69
41898;BME280;27576;53.366;-1.498;2023-06-05T09:48:22;101281.91;;;18.49;55.12
41898;BME280;27576;53.366;-1.498;2023-06-05T09:50:47;101283.75;;;18.36;55.73
41898;BME280;27576;53.366;-1.498;2023-06-05T09:53:15;101272.53;;;18.04;55.27
41898;BME280;27576;53.366;-1.498;2023-06-05T09:55:43;101287.41;;;17.99;56.98
41898;BME280;27576;53.366;-1.498;2023-06-05T09:58:12;101280.44;;;17.96;57.16
41898;BME280;27576;53.366;-1.498;2023-06-05T10:00:40;101282.19;;;17.83;56.78
41898;BME280;27576;53.366;-1.498;2023-06-05T10:03:14;101287.47;;;17.80;57.68
41898;BME280;27576;53.366;-1.498;2023-06-05T10:05:43;101266.50;;;17.77;57.78
41898;BME280;27576;53.366;-1.498;2023-06-05T10:08:11;101276.94;;;17.91;55.94
41898;BME280;27576;53.366;-1.498;2023-06-05T10:10:37;101273.47;;;17.80;56.28
41898;BME280;27576;53.366;-1.498;2023-06-05T10:13:03;101262.13;;;17.73;56.70
41898;BME280;27576;53.366;-1.498;2023-06-05T10:15:31;101253.38;;;17.83;55.47
41898;BME280;27576;53.366;-1.498;2023-06-05T10:17:57;101239.41;;;17.78;56.01
41898;BME280;27576;53.366;-1.498;2023-06-05T10:20:22;101250.75;;;17.76;55.16
41898;BME280;27576;53.366;-1.498;2023-06-05T10:22:49;101287.47;;;17.70;56.25
41898;BME280;27576;53.366;-1.498;2023-06-05T10:25:17;101284.84;;;17.60;57.99
41898;BME280;27576;53.366;-1.498;2023-06-05T10:28:02;101283.13;;;17.53;57.58
41898;BME280;27576;53.366;-1.498;2023-06-05T10:36:01;101283.13;;;17.52;58.01
41898;BME280;27576;53.366;-1.498;2023-06-05T10:38:33;101286.59;;;17.78;58.50
41898;BME280;27576;53.366;-1.498;2023-06-05T10:41:01;101276.94;;;17.94;56.41
41898;BME280;27576;53.366;-1.498;2023-06-05T10:46:35;101278.53;;;18.29;54.42
41898;BME280;27576;53.366;-1.498;2023-06-05T10:49:13;101280.09;;;18.60;53.83
41898;BME280;27576;53.366;-1.498;2023-06-05T10:51:45;101288.72;;;18.84;54.24
41898;BME280;27576;53.366;-1.498;2023-06-05T10:54:53;101288.53;;;19.08;52.15
41898;BME280;27576;53.366;-1.498;2023-06-05T10:57:04;101267.41;;;19.21;52.28
41898;BME280;27576;53.366;-1.498;2023-06-05T10:59:37;101282.88;;;19.54;53.94
41898;BME280;27576;53.366;-1.498;2023-06-05T11:02:22;101282.66;;;19.76;51.53
41898;BME280;27576;53.366;-1.498;2023-06-05T11:07:17;101285.38;;;19.70;51.43
41898;BME280;27576;53.366;-1.498;2023-06-05T11:12:26;101284.03;;;19.24;52.60
41898;BME280;27576;53.366;-1.498;2023-06-05T11:14:52;101285.97;;;19.04;52.89
41898;BME280;27576;53.366;-1.498;2023-06-05T11:17:31;101279.75;;;19.12;53.35
41898;BME280;27576;53.366;-1.498;2023-06-05T11:19:57;101282.13;;;19.42;53.75
41898;BME280;27576;53.366;-1.498;2023-06-05T11:22:23;101251.31;;;19.54;52.23
41898;BME280;27576;53.366;-1.498;2023-06-05T11:27:46;101279.41;;;19.51;51.34
41898;BME280;27576;53.366;-1.498;2023-06-05T11:30:17;101274.25;;;19.40;51.64
41898;BME280;27576;53.366;-1.498;2023-06-05T11:32:43;101263.75;;;19.37;52.52
41898;BME280;27576;53.366;-1.498;2023-06-05T11:35:09;101257.56;;;19.46;52.87
41898;BME280;27576;53.366;-1.498;2023-06-05T11:37:36;101269.75;;;19.51;52.43
41898;BME280;27576;53.366;-1.498;2023-06-05T11:40:03;101279.38;;;19.54;51.52
41898;BME280;27576;53.366;-1.498;2023-06-05T11:42:35;101286.25;;;19.69;52.94
41898;BME280;27576;53.366;-1.498;2023-06-05T11:45:01;101286.00;;;19.93;51.02
41898;BME280;27576;53.366;-1.498;2023-06-05T11:47:28;101239.59;;;19.84;50.91
41898;BME280;27576;53.366;-1.498;2023-06-05T11:50:10;101258.00;;;19.86;49.11
41898;BME280;27576;53.366;-1.498;2023-06-05T11:52:36;101239.84;;;19.65;50.91
41898;BME280;27576;53.366;-1.498;2023-06-05T11:55:31;101267.00;;;19.60;49.69
41898;BME280;27576;53.366;-1.498;2023-06-05T11:58:08;101244.63;;;19.26;51.14
41898;BME280;27576;53.366;-1.498;2023-06-05T12:00:34;101259.16;;;19.62;51.28
41898;BME280;27576;53.366;-1.498;2023-06-05T12:02:59;101258.81;;;19.91;51.09
41898;BME280;27576;53.366;-1.498;2023-06-05T12:05:25;101262.97;;;20.10;51.17
41898;BME280;27576;53.366;-1.498;2023-06-05T12:07:50;101267.97;;;20.30;51.40
41898;BME280;27576;53.366;-1.498;2023-06-05T12:10:16;101264.97;;;20.59;50.08
41898;BME280;27576;53.366;-1.498;2023-06-05T12:12:53;101257.69;;;20.75;49.07
41898;BME280;27576;53.366;-1.498;2023-06-05T12:15:20;101261.16;;;20.79;48.70
41898;BME280;27576;53.366;-1.498;2023-06-05T12:17:56;101254.78;;;20.92;50.67
41898;BME280;27576;53.366;-1.498;2023-06-05T12:20:22;101248.41;;;21.07;49.56
41898;BME280;27576;53.366;-1.498;2023-06-05T12:22:48;101250.09;;;21.11;49.30
41898;BME280;27576;53.366;-1.498;2023-06-05T12:25:20;101241.34;;;21.07;47.65
41898;BME280;27576;53.366;-1.498;2023-06-05T12:27:47;101249.31;;;21.04;49.09
41898;BME280;27576;53.366;-1.498;2023-06-05T12:30:14;101231.97;;;20.91;50.01
41898;BME280;27576;53.366;-1.498;2023-06-05T12:32:44;101234.41;;;21.02;50.76
41898;BME280;27576;53.366;-1.498;2023-06-05T12:35:23;101245.31;;;21.33;46.92
41898;BME280;27576;53.366;-1.498;2023-06-05T12:37:50;101239.75;;;21.50;48.81
41898;BME280;27576;53.366;-1.498;2023-06-05T12:40:16;101234.75;;;21.79;47.56
41898;BME280;27576;53.366;-1.498;2023-06-05T12:42:47;101233.63;;;21.91;47.33
41898;BME280;27576;53.366;-1.498;2023-06-05T12:45:12;101233.41;;;22.00;46.54
41898;BME280;27576;53.366;-1.498;2023-06-05T12:47:39;101213.38;;;21.92;45.99
41898;BME280;27576;53.366;-1.498;2023-06-05T12:50:07;101230.03;;;21.95;45.49
41898;BME280;27576;53.366;-1.498;2023-06-05T12:52:37;101220.66;;;21.80;46.39
41898;BME280;27576;53.366;-1.498;2023-06-05T12:55:02;101215.25;;;21.87;47.01
41898;BME280;27576;53.366;-1.498;2023-06-05T12:57:29;101203.50;;;22.01;46.37